createdAt,value
2019-05-17T00:00:37.396Z,100.00
2019-05-17T00:03:07.008Z,100.00
2019-05-17T00:05:37.525Z,100.00
2019-05-17T00:08:07.635Z,100.00
2019-05-17T00:10:37.573Z,100.00
2019-05-17T00:13:08.354Z,100.00
2019-05-17T00:15:37.352Z,100.00
2019-05-17T00:18:06.681Z,100.00
2019-05-17T00:20:37.532Z,100.00
2019-05-17T00:23:07.053Z,100.00
2019-05-17T00:25:36.830Z,100.00
2019-05-17T00:28:07.285Z,100.00
2019-05-17T00:30:37.362Z,100.00
2019-05-17T00:33:07.779Z,100.00
2019-05-17T00:35:37.687Z,100.00
2019-05-17T00:38:06.833Z,100.00
2019-05-17T00:40:36.571Z,100.00
2019-05-17T00:43:06.705Z,100.00
2019-05-17T00:45:37.636Z,100.00
2019-05-17T00:48:06.771Z,100.00
2019-05-17T00:50:37.953Z,100.00
2019-05-17T00:53:07.195Z,100.00
2019-05-17T00:55:36.654Z,100.00
2019-05-17T00:58:06.711Z,100.00
2019-05-17T01:00:37.798Z,100.00
2019-05-17T01:03:07.245Z,100.00
2019-05-17T01:05:36.973Z,100.00
2019-05-17T01:08:07.253Z,100.00
2019-05-17T01:10:36.780Z,100.00
2019-05-17T01:13:06.916Z,100.00
2019-05-17T01:15:36.998Z,100.00
2019-05-17T01:18:07.155Z,100.00
2019-05-17T01:20:36.890Z,100.00
2019-05-17T01:23:07.715Z,100.00
2019-05-17T01:25:37.024Z,100.00
2019-05-17T01:28:07.556Z,100.00
2019-05-17T01:30:37.480Z,100.00
2019-05-17T01:33:06.875Z,100.00
2019-05-17T01:35:37.460Z,100.00
2019-05-17T01:38:07.487Z,100.00
2019-05-17T01:40:37.311Z,100.00
2019-05-17T01:43:07.953Z,100.00
2019-05-17T01:45:36.783Z,100.00
2019-05-17T01:48:07.419Z,100.00
2019-05-17T01:50:37.346Z,100.00
2019-05-17T01:53:07.370Z,100.00
2019-05-17T01:55:37.541Z,100.00
2019-05-17T01:58:07.270Z,100.00
2019-05-17T02:00:37.678Z,100.00
2019-05-17T02:03:07.290Z,100.00
2019-05-17T02:05:37.259Z,100.00
2019-05-17T02:08:06.839Z,100.00
2019-05-17T02:10:37.564Z,100.00
2019-05-17T02:13:06.950Z,100.00
2019-05-17T02:15:37.834Z,100.00
2019-05-17T02:18:07.114Z,100.00
2019-05-17T02:20:37.242Z,100.00
2019-05-17T02:23:07.248Z,100.00
2019-05-17T02:25:36.890Z,100.00
2019-05-17T02:28:05.932Z,100.00
2019-05-17T02:30:35.013Z,100.00
2019-05-17T02:33:04.437Z,100.00
2019-05-17T02:35:33.986Z,100.00
2019-05-17T02:38:03.354Z,100.00
2019-05-17T02:40:34.086Z,100.00
2019-05-17T02:43:03.451Z,100.00
2019-05-17T02:45:33.221Z,100.00
2019-05-17T02:48:03.611Z,100.00
2019-05-17T02:50:33.277Z,100.00
2019-05-17T02:53:04.435Z,100.00
2019-05-17T02:55:33.207Z,100.00
2019-05-17T02:58:02.962Z,100.00
2019-05-17T03:00:33.760Z,100.00
2019-05-17T03:03:03.789Z,100.00
2019-05-17T03:05:33.904Z,100.00
2019-05-17T03:08:04.751Z,100.00
2019-05-17T03:10:34.091Z,100.00
2019-05-17T03:13:04.087Z,100.00
2019-05-17T03:15:33.303Z,100.00
2019-05-17T03:18:03.736Z,100.00
2019-05-17T03:20:33.211Z,100.00
2019-05-17T03:23:03.668Z,100.00
2019-05-17T03:25:33.524Z,100.00
2019-05-17T03:28:03.182Z,100.00
2019-05-17T03:30:36.550Z,100.00
2019-05-17T03:33:07.087Z,100.00
2019-05-17T03:35:37.702Z,100.00
2019-05-17T03:38:05.748Z,100.00
2019-05-17T03:41:03.283Z,100.00
2019-05-17T03:43:05.212Z,100.00
2019-05-17T03:45:34.400Z,100.00
2019-05-17T03:48:04.898Z,100.00
2019-05-17T03:50:34.202Z,100.00
2019-05-17T03:53:03.110Z,100.00
2019-05-17T03:55:33.252Z,100.00
2019-05-17T03:58:03.599Z,100.00
2019-05-17T04:00:35.303Z,100.00
2019-05-17T04:03:03.473Z,100.00
2019-05-17T04:05:33.321Z,100.00
2019-05-17T04:08:03.493Z,100.00
2019-05-17T04:10:33.540Z,100.00
2019-05-17T04:13:04.234Z,100.00
2019-05-17T04:15:33.433Z,100.00
2019-05-17T04:18:04.171Z,100.00
2019-05-17T04:20:33.586Z,100.00
2019-05-17T04:23:03.741Z,100.00
2019-05-17T04:25:33.851Z,100.00
2019-05-17T04:28:03.227Z,100.00
2019-05-17T04:30:32.905Z,100.00
2019-05-17T04:33:03.559Z,100.00
2019-05-17T04:35:32.910Z,100.00
2019-05-17T04:38:04.256Z,100.00
2019-05-17T04:40:34.103Z,100.00
2019-05-17T04:43:03.540Z,100.00
2019-05-17T04:45:33.570Z,100.00
2019-05-17T04:48:04.079Z,100.00
2019-05-17T04:50:33.626Z,100.00
2019-05-17T04:53:02.984Z,100.00
2019-05-17T04:55:34.255Z,100.00
2019-05-17T04:58:04.193Z,100.00
2019-05-17T05:00:34.202Z,100.00
2019-05-17T05:03:04.032Z,100.00
2019-05-17T05:05:33.688Z,100.00
2019-05-17T05:08:03.353Z,100.00
2019-05-17T05:10:33.373Z,100.00
2019-05-17T05:13:03.497Z,100.00
2019-05-17T05:15:43.982Z,100.00
2019-05-17T05:18:13.572Z,100.00
2019-05-17T05:20:43.654Z,100.00
2019-05-17T05:23:13.418Z,100.00
2019-05-17T05:25:43.258Z,100.00
2019-05-17T05:28:12.453Z,100.00
2019-05-17T05:30:42.336Z,100.00
2019-05-17T05:33:12.819Z,100.00
2019-05-17T05:35:42.717Z,100.00
2019-05-17T05:38:21.473Z,100.00
2019-05-17T05:40:52.005Z,100.00
2019-05-17T05:43:22.549Z,100.00
2019-05-17T05:45:53.461Z,100.00
2019-05-17T05:48:21.808Z,100.00
2019-05-17T05:50:52.059Z,100.00
2019-05-17T05:53:21.808Z,100.00
2019-05-17T05:55:51.797Z,100.00
2019-05-17T05:58:23.579Z,100.00
2019-05-17T06:00:53.142Z,100.00
2019-05-17T06:03:22.569Z,100.00
2019-05-17T06:05:52.528Z,100.00
2019-05-17T06:08:22.778Z,100.00
2019-05-17T06:10:53.144Z,100.00
2019-05-17T06:13:22.285Z,100.00
2019-05-17T06:15:51.811Z,100.00
2019-05-17T06:18:22.671Z,100.00
2019-05-17T06:20:52.351Z,100.00
2019-05-17T06:23:23.439Z,100.00
2019-05-17T06:25:52.230Z,100.00
2019-05-17T06:28:22.293Z,100.00
2019-05-17T06:30:52.155Z,100.00
2019-05-17T06:33:30.609Z,100.00
2019-05-17T06:35:52.514Z,100.00
2019-05-17T06:38:22.442Z,100.00
2019-05-17T06:40:52.334Z,100.00
2019-05-17T06:43:21.610Z,100.00
2019-05-17T06:45:52.260Z,100.00
2019-05-17T06:48:22.556Z,100.00
2019-05-17T06:50:52.045Z,100.00
2019-05-17T06:53:21.930Z,100.00
2019-05-17T06:55:53.255Z,100.00
2019-05-17T06:58:22.248Z,100.00
2019-05-17T07:00:51.049Z,100.00
2019-05-17T07:03:19.962Z,100.00
2019-05-17T07:05:50.358Z,100.00
2019-05-17T07:08:20.146Z,100.00
2019-05-17T07:10:50.235Z,100.00
2019-05-17T07:13:19.834Z,100.00
2019-05-17T07:15:50.900Z,100.00
2019-05-17T07:18:19.501Z,100.00
2019-05-17T07:20:50.180Z,100.00
2019-05-17T07:23:19.691Z,100.00
2019-05-17T07:25:50.367Z,100.00
2019-05-17T07:28:19.950Z,100.00
2019-05-17T07:30:50.393Z,100.00
2019-05-17T07:33:19.884Z,100.00
2019-05-17T07:35:50.120Z,100.00
2019-05-17T07:38:30.847Z,100.00
2019-05-17T07:40:59.785Z,100.00
2019-05-17T07:43:29.864Z,100.00
2019-05-17T07:46:00.375Z,100.00
2019-05-17T07:48:31.300Z,100.00
2019-05-17T07:50:59.796Z,100.00
2019-05-17T07:53:30.712Z,100.00
2019-05-17T07:55:59.688Z,100.00
2019-05-17T07:58:29.903Z,100.00
2019-05-17T08:01:01.513Z,100.00
2019-05-17T08:03:29.856Z,100.00
2019-05-17T08:06:00.053Z,100.00
2019-05-17T08:08:30.937Z,100.00
2019-05-17T08:11:00.455Z,100.00
2019-05-17T08:13:31.415Z,100.00
2019-05-17T08:15:59.969Z,100.00
2019-05-17T08:18:29.590Z,100.00
2019-05-17T08:20:59.705Z,100.00
2019-05-17T08:23:30.421Z,100.00
2019-05-17T08:26:00.397Z,100.00
2019-05-17T08:28:31.271Z,100.00
2019-05-17T08:31:00.987Z,100.00
2019-05-17T08:33:30.432Z,100.00
2019-05-17T08:35:59.819Z,100.00
2019-05-17T08:38:30.500Z,100.00
2019-05-17T08:41:00.741Z,100.00
2019-05-17T08:43:39.752Z,100.00
2019-05-17T08:46:02.060Z,100.00
2019-05-17T08:48:30.815Z,100.00
2019-05-17T08:51:00.274Z,100.00
2019-05-17T08:53:30.482Z,100.00
2019-05-17T08:56:01.027Z,99.48
2019-05-17T08:58:30.334Z,99.76
2019-05-17T09:01:00.275Z,99.18
2019-05-17T09:03:30.427Z,99.34
2019-05-17T09:06:02.362Z,98.86
2019-05-17T09:08:29.973Z,97.00
2019-05-17T09:11:00.409Z,97.86
2019-05-17T09:13:29.799Z,97.65
2019-05-17T09:16:00.361Z,97.23
2019-05-17T09:18:30.201Z,97.11
2019-05-17T09:21:00.325Z,95.71
2019-05-17T09:23:30.417Z,94.17
2019-05-17T09:25:59.699Z,93.99
2019-05-17T09:28:30.035Z,94.18
2019-05-17T09:30:59.912Z,93.05
2019-05-17T09:33:30.060Z,93.75
2019-05-17T09:36:00.701Z,93.81
2019-05-17T09:38:29.716Z,92.76
2019-05-17T09:40:59.965Z,92.25
2019-05-17T09:43:29.558Z,92.71
2019-05-17T09:46:07.276Z,91.90
2019-05-17T09:48:36.027Z,91.33
2019-05-17T09:51:05.195Z,90.62
2019-05-17T09:53:33.990Z,90.92
2019-05-17T09:56:02.715Z,92.43
2019-05-17T09:58:31.527Z,92.01
2019-05-17T10:01:01.308Z,95.49
2019-05-17T10:03:30.870Z,95.78
2019-05-17T10:06:00.077Z,94.93
2019-05-17T10:08:29.119Z,94.16
2019-05-17T10:11:08.098Z,94.54
2019-05-17T10:13:28.527Z,94.10
2019-05-17T10:15:57.321Z,95.23
2019-05-17T10:18:26.179Z,94.88
2019-05-17T10:20:55.111Z,95.38
2019-05-17T10:23:24.184Z,95.44
2019-05-17T10:25:52.960Z,95.43
2019-05-17T10:28:21.765Z,96.30
2019-05-17T10:30:52.278Z,95.50
2019-05-17T10:33:23.681Z,96.12
2019-05-17T10:35:52.485Z,96.74
2019-05-17T10:38:21.476Z,96.64
2019-05-17T10:40:50.413Z,96.54
2019-05-17T10:43:20.405Z,95.15
2019-05-17T10:45:49.289Z,94.00
2019-05-17T10:48:21.010Z,93.78
2019-05-17T10:50:49.679Z,94.94
2019-05-17T10:53:20.427Z,94.30
2019-05-17T10:55:49.941Z,94.01
2019-05-17T10:58:21.284Z,94.29
2019-05-17T11:02:23.774Z,93.94
2019-05-17T11:04:31.647Z,93.33
2019-05-17T11:07:37.699Z,91.76
2019-05-17T11:10:41.982Z,90.43
2019-05-17T11:13:48.811Z,89.14
2019-05-17T11:16:25.590Z,89.23
2019-05-17T11:19:29.476Z,89.31
2019-05-17T11:22:04.637Z,88.96
2019-05-17T11:25:08.621Z,88.57
2019-05-17T11:51:27.347Z,88.97
2019-05-17T11:53:56.257Z,89.99
2019-05-17T11:56:25.020Z,88.49
2019-05-17T11:58:53.757Z,89.50
2019-05-17T12:01:22.613Z,89.69
2019-05-17T12:03:51.351Z,89.58
2019-05-17T12:06:20.263Z,89.77
2019-05-17T12:08:49.047Z,89.35
2019-05-17T12:11:17.884Z,90.31
2019-05-17T12:13:46.668Z,90.78
2019-05-17T12:16:15.531Z,90.38
2019-05-17T12:18:44.224Z,90.37
2019-05-17T12:21:13.125Z,90.34
2019-05-17T12:23:41.922Z,89.75
2019-05-17T12:26:10.766Z,90.90
2019-05-17T12:28:39.514Z,89.95
2019-05-17T12:31:08.395Z,90.79
2019-05-17T12:33:37.419Z,91.04
2019-05-17T12:36:06.694Z,90.79
2019-05-17T12:38:35.609Z,89.53
2019-05-17T12:41:04.387Z,88.91
2019-05-17T12:43:33.103Z,88.48
2019-05-17T12:46:02.020Z,88.11
2019-05-17T12:48:30.864Z,87.97
2019-05-17T12:50:59.600Z,88.89
2019-05-17T12:53:28.441Z,87.50
2019-05-17T12:55:57.383Z,85.87
2019-05-17T12:58:26.311Z,83.87
2019-05-17T13:00:55.198Z,81.74
2019-05-17T13:03:23.945Z,82.17
2019-05-17T13:05:52.690Z,81.96
2019-05-17T13:08:21.508Z,81.96
2019-05-17T13:10:50.324Z,81.86
2019-05-17T13:13:19.114Z,81.46
2019-05-17T13:15:47.895Z,80.14
2019-05-17T13:18:16.645Z,79.85
2019-05-17T13:20:45.423Z,79.42
2019-05-17T13:23:14.197Z,80.22
2019-05-17T13:25:42.938Z,79.65
2019-05-17T13:28:11.800Z,78.31
2019-05-17T13:30:40.539Z,78.16
2019-05-17T13:33:09.414Z,80.07
2019-05-17T13:35:38.176Z,77.91
2019-05-17T13:38:06.945Z,77.88
2019-05-17T13:40:39.543Z,78.37
2019-05-17T13:43:07.307Z,77.67
2019-05-17T13:45:36.048Z,77.51
2019-05-17T13:48:04.851Z,78.31
2019-05-17T13:50:33.605Z,79.20
2019-05-17T13:53:02.325Z,81.20
2019-05-17T13:55:31.160Z,81.03
2019-05-17T13:58:00.205Z,80.44
2019-05-17T14:00:29.445Z,81.42
2019-05-17T14:02:58.138Z,81.46
2019-05-17T14:05:26.878Z,80.88
2019-05-17T14:07:55.694Z,81.89
2019-05-17T14:10:27.773Z,79.94
2019-05-17T14:12:54.942Z,79.58
2019-05-17T14:15:23.826Z,80.05
2019-05-17T14:17:52.549Z,81.32
2019-05-17T14:20:21.378Z,81.48
2019-05-17T14:22:50.243Z,81.75
2019-05-17T14:25:19.249Z,82.68
2019-05-17T14:27:48.068Z,82.21
2019-05-17T14:30:17.155Z,83.10
2019-05-17T14:32:45.866Z,82.41
2019-05-17T14:35:15.100Z,83.39
2019-05-17T14:37:43.803Z,80.80
2019-05-17T14:40:13.195Z,81.02
2019-05-17T14:42:41.928Z,80.45
2019-05-17T14:45:11.033Z,80.07
2019-05-17T14:47:39.824Z,79.13
2019-05-17T14:50:09.182Z,80.86
2019-05-17T14:52:37.920Z,78.59
2019-05-17T14:55:06.840Z,78.58
2019-05-17T14:57:35.637Z,81.45
2019-05-17T15:00:05.077Z,81.20
2019-05-17T15:02:33.933Z,79.99
2019-05-17T15:05:03.317Z,79.80
2019-05-17T15:07:32.389Z,79.28
2019-05-17T15:10:01.087Z,78.24
2019-05-17T15:12:29.806Z,79.58
2019-05-17T15:14:58.551Z,78.49
2019-05-17T15:17:27.338Z,78.96
2019-05-17T15:19:56.087Z,79.53
2019-05-17T15:22:24.834Z,79.35
2019-05-17T15:24:53.582Z,78.52
2019-05-17T15:27:22.485Z,79.38
2019-05-17T15:29:51.294Z,79.40
2019-05-17T15:32:20.055Z,77.62
2019-05-17T15:34:48.794Z,80.41
2019-05-17T15:37:17.536Z,79.98
2019-05-17T15:39:46.272Z,79.80
2019-05-17T15:42:14.983Z,80.48
2019-05-17T15:44:43.728Z,79.75
2019-05-17T15:47:12.547Z,79.25
2019-05-17T15:49:41.271Z,79.39
2019-05-17T15:52:10.066Z,79.37
2019-05-17T15:54:38.786Z,78.92
2019-05-17T15:57:07.559Z,78.23
2019-05-17T15:59:36.307Z,77.85
2019-05-17T16:02:05.463Z,77.48
2019-05-17T16:04:34.396Z,78.70
2019-05-17T16:07:03.154Z,77.39
2019-05-17T16:09:31.870Z,77.87
2019-05-17T16:12:00.623Z,78.07
2019-05-17T16:14:29.439Z,78.36
2019-05-17T16:16:58.260Z,78.41
2019-05-17T16:19:26.987Z,78.17
2019-05-17T16:21:55.749Z,77.09
2019-05-17T16:24:24.478Z,77.43
2019-05-17T16:26:53.410Z,77.13
2019-05-17T16:29:22.161Z,77.81
2019-05-17T16:31:50.903Z,78.55
2019-05-17T16:34:19.612Z,78.52
2019-05-17T16:36:48.431Z,78.31
2019-05-17T16:39:17.239Z,79.30
2019-05-17T16:41:46.085Z,79.73
2019-05-17T16:44:14.857Z,80.13
2019-05-17T16:46:43.545Z,80.78
2019-05-17T16:49:12.519Z,80.99
2019-05-17T16:51:41.459Z,81.77
2019-05-17T16:54:10.396Z,80.64
2019-05-17T16:56:39.485Z,79.30
2019-05-17T16:59:08.305Z,78.99
2019-05-17T17:01:37.142Z,79.44
2019-05-17T17:04:06.153Z,79.83
2019-05-17T17:06:35.132Z,79.37
2019-05-17T17:09:05.598Z,79.12
2019-05-17T17:11:34.322Z,79.58
2019-05-17T17:14:03.141Z,79.75
2019-05-17T17:16:31.914Z,79.61
2019-05-17T17:19:00.670Z,80.23
2019-05-17T17:21:29.473Z,80.06
2019-05-17T17:23:58.672Z,80.42
2019-05-17T17:28:56.669Z,80.14
2019-05-17T17:31:25.778Z,81.09
2019-05-17T17:33:54.643Z,79.96
2019-05-17T17:36:26.469Z,80.08
2019-05-17T17:38:55.217Z,80.51
2019-05-17T17:41:26.454Z,80.52
2019-05-17T17:43:58.662Z,80.82
2019-05-17T17:46:25.010Z,80.39
2019-05-17T17:48:54.881Z,80.18
2019-05-17T17:51:23.675Z,80.81
2019-05-17T17:53:53.575Z,80.87
2019-05-17T17:56:22.392Z,80.88
2019-05-17T17:58:51.362Z,80.91
2019-05-17T18:01:20.241Z,80.63
2019-05-17T18:03:49.055Z,80.67
2019-05-17T18:06:18.076Z,81.50
2019-05-17T18:08:47.495Z,79.92
2019-05-17T18:11:16.414Z,81.15
2019-05-17T18:13:45.372Z,81.10
2019-05-17T18:16:14.768Z,81.91
2019-05-17T18:18:43.793Z,85.58
2019-05-17T18:21:15.597Z,86.29
2019-05-17T18:23:48.224Z,88.78
2019-05-17T18:26:22.230Z,92.39
2019-05-17T18:28:52.476Z,95.02
2019-05-17T18:31:24.965Z,95.79
2019-05-17T18:33:59.390Z,96.83
2019-05-17T18:36:32.337Z,98.62
2019-05-17T18:39:01.957Z,98.98
2019-05-17T18:41:30.916Z,98.33
2019-05-17T18:43:59.941Z,99.83
2019-05-17T18:46:28.953Z,100.00
2019-05-17T18:48:57.706Z,100.00
2019-05-17T18:51:26.620Z,100.00
2019-05-17T18:53:56.428Z,100.00
2019-05-17T18:56:25.406Z,100.00
2019-05-17T18:58:54.177Z,100.00
2019-05-17T19:01:23.216Z,100.00
2019-05-17T19:03:52.216Z,100.00
2019-05-17T19:06:21.095Z,100.00
2019-05-17T19:08:49.853Z,100.00
2019-05-17T19:11:18.640Z,100.00
2019-05-17T19:13:57.671Z,100.00
2019-05-17T19:16:29.676Z,100.00
2019-05-17T19:19:00.478Z,100.00
2019-05-17T19:21:29.228Z,100.00
2019-05-17T19:23:58.196Z,100.00
2019-05-17T19:26:28.904Z,100.00
2019-05-17T19:28:57.668Z,100.00
2019-05-17T19:31:26.501Z,100.00
2019-05-17T19:33:55.376Z,100.00
2019-05-17T19:36:24.189Z,100.00
2019-05-17T19:38:53.195Z,100.00
2019-05-17T19:41:22.005Z,100.00
2019-05-17T19:43:50.896Z,100.00
2019-05-17T19:46:20.207Z,100.00
2019-05-17T19:48:49.406Z,100.00
2019-05-17T19:51:18.249Z,100.00
2019-05-17T19:53:47.010Z,100.00
2019-05-17T19:56:16.162Z,100.00
2019-05-17T19:58:44.925Z,100.00
2019-05-17T20:01:17.659Z,100.00
2019-05-17T20:03:48.161Z,100.00
2019-05-17T20:06:21.443Z,100.00
2019-05-17T20:08:53.480Z,100.00
2019-05-17T20:11:33.976Z,100.00
2019-05-17T20:14:00.107Z,100.00
2019-05-17T20:16:31.051Z,100.00
2019-05-17T20:19:02.146Z,100.00
2019-05-17T20:21:32.773Z,100.00
2019-05-17T20:24:06.429Z,100.00
2019-05-17T20:26:35.243Z,100.00
2019-05-17T20:29:04.372Z,100.00
2019-05-17T20:31:33.233Z,100.00
2019-05-17T20:34:01.975Z,100.00
2019-05-17T20:36:36.843Z,100.00
2019-05-17T20:39:06.249Z,100.00
2019-05-17T20:41:35.109Z,100.00
2019-05-17T20:44:07.684Z,100.00
2019-05-17T20:46:36.847Z,100.00
2019-05-17T20:49:06.070Z,100.00
2019-05-17T20:51:34.855Z,100.00
2019-05-17T20:54:03.628Z,100.00
2019-05-17T20:56:33.458Z,100.00
2019-05-17T20:59:05.366Z,100.00
2019-05-17T21:01:34.235Z,100.00
2019-05-17T21:04:03.019Z,100.00
2019-05-17T21:06:31.798Z,100.00
2019-05-17T21:09:00.624Z,100.00
2019-05-17T21:11:29.415Z,100.00
2019-05-17T21:13:58.165Z,100.00
2019-05-17T21:16:26.993Z,100.00
2019-05-17T21:18:55.914Z,100.00
2019-05-17T21:21:26.639Z,100.00
2019-05-17T21:23:55.560Z,100.00
2019-05-17T21:26:24.346Z,100.00
2019-05-17T21:28:53.338Z,100.00
2019-05-17T21:31:22.394Z,100.00
2019-05-17T21:33:55.042Z,100.00
2019-05-17T21:36:23.905Z,100.00
2019-05-17T21:38:52.676Z,100.00
2019-05-17T21:41:21.578Z,100.00
2019-05-17T21:43:50.379Z,100.00
2019-05-17T21:46:19.159Z,100.00
2019-05-17T21:48:47.932Z,100.00
2019-05-17T21:51:16.796Z,100.00
2019-05-17T21:53:45.543Z,100.00
2019-05-17T21:56:14.772Z,100.00
2019-05-17T21:58:45.361Z,100.00
2019-05-17T22:01:17.871Z,100.00
2019-05-17T22:03:46.691Z,100.00
2019-05-17T22:06:16.021Z,100.00
2019-05-17T22:08:45.021Z,100.00
2019-05-17T22:11:15.273Z,100.00
2019-05-17T22:13:44.218Z,100.00
2019-05-17T22:16:19.623Z,100.00
2019-05-17T22:18:43.639Z,100.00
2019-05-17T22:21:15.041Z,100.00
2019-05-17T22:23:43.107Z,100.00
2019-05-17T22:26:12.449Z,100.00
2019-05-17T22:28:41.261Z,100.00
2019-05-17T22:31:10.013Z,100.00
2019-05-17T22:33:38.793Z,100.00
2019-05-17T22:36:07.695Z,100.00
2019-05-17T22:38:36.411Z,100.00
2019-05-17T22:41:05.179Z,100.00
2019-05-17T22:43:33.904Z,100.00
2019-05-17T22:46:02.644Z,100.00
2019-05-17T22:48:31.430Z,100.00
2019-05-17T22:51:00.236Z,100.00
2019-05-17T22:53:28.962Z,100.00
2019-05-17T22:55:57.705Z,100.00
2019-05-17T22:58:26.438Z,100.00
2019-05-17T23:00:55.237Z,100.00
2019-05-17T23:03:24.295Z,100.00
2019-05-17T23:05:53.913Z,100.00
2019-05-17T23:08:23.183Z,100.00
2019-05-17T23:10:52.014Z,100.00
2019-05-17T23:13:20.758Z,100.00
2019-05-17T23:16:02.412Z,100.00
2019-05-17T23:18:32.751Z,100.00
2019-05-17T23:21:01.589Z,100.00
2019-05-17T23:23:30.934Z,100.00
2019-05-17T23:25:59.773Z,100.00
2019-05-17T23:28:28.603Z,100.00
2019-05-17T23:30:57.339Z,100.00
2019-05-17T23:33:26.477Z,100.00
2019-05-17T23:35:55.211Z,100.00
2019-05-17T23:38:24.165Z,100.00
2019-05-17T23:40:52.978Z,100.00
2019-05-17T23:43:21.788Z,100.00
2019-05-17T23:45:50.557Z,100.00
2019-05-17T23:48:19.477Z,100.00
2019-05-17T23:50:48.225Z,100.00
2019-05-17T23:53:16.954Z,100.00
2019-05-17T23:55:45.821Z,100.00
2019-05-17T23:58:14.628Z,100.00
